sensor_id;sensor_type;location;lat;lon;timestamp;P1;durP1;ratioP1;P2;durP2;ratioP2
16804;SDS011;8520;50.102;20.010;2022-12-16T00:01:46;62.23;;;54.97;;
16804;SDS011;8520;50.102;20.010;2022-12-16T00:04:14;61.83;;;55.07;;
16804;SDS011;8520;50.102;20.010;2022-12-16T00:06:43;59.53;;;52.97;;
16804;SDS011;8520;50.102;20.010;2022-12-16T00:09:11;59.70;;;52.87;;
16804;SDS011;8520;50.102;20.010;2022-12-16T00:11:39;61.43;;;53.60;;
16804;SDS011;8520;50.102;20.010;2022-12-16T00:14:07;60.67;;;54.03;;
16804;SDS011;8520;50.102;20.010;2022-12-16T00:16:37;60.30;;;53.80;;
16804;SDS011;8520;50.102;20.010;2022-12-16T00:19:05;58.00;;;51.83;;
16804;SDS011;8520;50.102;20.010;2022-12-16T00:21:33;59.63;;;52.87;;
16804;SDS011;8520;50.102;20.010;2022-12-16T00:24:02;59.63;;;53.20;;
16804;SDS011;8520;50.102;20.010;2022-12-16T00:26:30;60.00;;;53.53;;
16804;SDS011;8520;50.102;20.010;2022-12-16T00:28:59;58.43;;;52.20;;
16804;SDS011;8520;50.102;20.010;2022-12-16T00:31:27;59.47;;;53.13;;
16804;SDS011;8520;50.102;20.010;2022-12-16T00:33:57;58.03;;;51.93;;
16804;SDS011;8520;50.102;20.010;2022-12-16T00:36:25;57.87;;;51.70;;
16804;SDS011;8520;50.102;20.010;2022-12-16T00:38:53;61.07;;;54.73;;
16804;SDS011;8520;50.102;20.010;2022-12-16T00:41:21;62.33;;;55.60;;
16804;SDS011;8520;50.102;20.010;2022-12-16T00:43:49;63.27;;;55.30;;
16804;SDS011;8520;50.102;20.010;2022-12-16T00:46:17;60.87;;;54.27;;
16804;SDS011;8520;50.102;20.010;2022-12-16T00:48:45;63.10;;;56.30;;
16804;SDS011;8520;50.102;20.010;2022-12-16T00:51:15;64.00;;;57.07;;
16804;SDS011;8520;50.102;20.010;2022-12-16T00:53:43;65.93;;;58.77;;
16804;SDS011;8520;50.102;20.010;2022-12-16T00:56:11;64.57;;;57.60;;
16804;SDS011;8520;50.102;20.010;2022-12-16T00:58:41;65.47;;;58.47;;
16804;SDS011;8520;50.102;20.010;2022-12-16T01:01:09;62.43;;;56.07;;
16804;SDS011;8520;50.102;20.010;2022-12-16T01:03:38;63.33;;;56.70;;
16804;SDS011;8520;50.102;20.010;2022-12-16T01:06:08;66.07;;;59.27;;
16804;SDS011;8520;50.102;20.010;2022-12-16T01:08:38;65.00;;;58.03;;
16804;SDS011;8520;50.102;20.010;2022-12-16T01:11:14;63.83;;;56.90;;
16804;SDS011;8520;50.102;20.010;2022-12-16T01:13:43;63.90;;;56.97;;
16804;SDS011;8520;50.102;20.010;2022-12-16T01:16:11;63.40;;;56.70;;
16804;SDS011;8520;50.102;20.010;2022-12-16T01:18:40;61.27;;;54.87;;
16804;SDS011;8520;50.102;20.010;2022-12-16T01:21:09;63.30;;;56.67;;
16804;SDS011;8520;50.102;20.010;2022-12-16T01:23:41;61.17;;;54.57;;
16804;SDS011;8520;50.102;20.010;2022-12-16T01:26:10;61.47;;;54.70;;
16804;SDS011;8520;50.102;20.010;2022-12-16T01:28:43;60.90;;;54.60;;
16804;SDS011;8520;50.102;20.010;2022-12-16T01:31:11;61.87;;;55.50;;
16804;SDS011;8520;50.102;20.010;2022-12-16T01:33:41;61.40;;;54.77;;
16804;SDS011;8520;50.102;20.010;2022-12-16T01:36:09;62.23;;;55.50;;
16804;SDS011;8520;50.102;20.010;2022-12-16T01:38:37;64.73;;;56.93;;
16804;SDS011;8520;50.102;20.010;2022-12-16T01:41:09;62.60;;;56.07;;
16804;SDS011;8520;50.102;20.010;2022-12-16T01:43:39;63.43;;;56.83;;
16804;SDS011;8520;50.102;20.010;2022-12-16T01:46:09;64.27;;;57.50;;
16804;SDS011;8520;50.102;20.010;2022-12-16T01:48:45;63.87;;;56.93;;
16804;SDS011;8520;50.102;20.010;2022-12-16T01:51:19;61.37;;;54.90;;
16804;SDS011;8520;50.102;20.010;2022-12-16T01:53:51;64.93;;;58.13;;
16804;SDS011;8520;50.102;20.010;2022-12-16T01:56:26;63.97;;;57.27;;
16804;SDS011;8520;50.102;20.010;2022-12-16T01:58:57;64.57;;;57.77;;
16804;SDS011;8520;50.102;20.010;2022-12-16T02:01:27;61.93;;;55.50;;
16804;SDS011;8520;50.102;20.010;2022-12-16T02:03:55;61.37;;;54.77;;
16804;SDS011;8520;50.102;20.010;2022-12-16T02:06:27;61.23;;;54.93;;
16804;SDS011;8520;50.102;20.010;2022-12-16T02:08:56;62.30;;;55.70;;
16804;SDS011;8520;50.102;20.010;2022-12-16T02:11:34;61.93;;;55.33;;
16804;SDS011;8520;50.102;20.010;2022-12-16T02:14:25;61.33;;;54.90;;
16804;SDS011;8520;50.102;20.010;2022-12-16T02:17:12;59.97;;;53.83;;
16804;SDS011;8520;50.102;20.010;2022-12-16T02:22:46;60.23;;;53.93;;
16804;SDS011;8520;50.102;20.010;2022-12-16T02:28:41;60.90;;;54.43;;
16804;SDS011;8520;50.102;20.010;2022-12-16T02:31:26;60.87;;;54.37;;
16804;SDS011;8520;50.102;20.010;2022-12-16T02:34:06;59.87;;;53.63;;
16804;SDS011;8520;50.102;20.010;2022-12-16T02:36:45;60.27;;;54.07;;
16804;SDS011;8520;50.102;20.010;2022-12-16T02:39:24;59.23;;;53.37;;
16804;SDS011;8520;50.102;20.010;2022-12-16T02:41:59;60.90;;;54.40;;
16804;SDS011;8520;50.102;20.010;2022-12-16T02:44:34;61.00;;;54.50;;
16804;SDS011;8520;50.102;20.010;2022-12-16T02:47:12;61.37;;;54.97;;
16804;SDS011;8520;50.102;20.010;2022-12-16T02:49:42;59.60;;;53.20;;
16804;SDS011;8520;50.102;20.010;2022-12-16T02:52:13;59.33;;;53.13;;
16804;SDS011;8520;50.102;20.010;2022-12-16T02:54:42;60.40;;;54.10;;
16804;SDS011;8520;50.102;20.010;2022-12-16T02:57:19;61.10;;;54.63;;
16804;SDS011;8520;50.102;20.010;2022-12-16T03:00:00;61.20;;;54.80;;
16804;SDS011;8520;50.102;20.010;2022-12-16T03:02:35;58.47;;;52.60;;
16804;SDS011;8520;50.102;20.010;2022-12-16T03:05:08;58.47;;;52.57;;
16804;SDS011;8520;50.102;20.010;2022-12-16T03:07:42;59.40;;;53.27;;
16804;SDS011;8520;50.102;20.010;2022-12-16T03:10:13;58.57;;;52.33;;
16804;SDS011;8520;50.102;20.010;2022-12-16T03:12:44;57.10;;;51.17;;
16804;SDS011;8520;50.102;20.010;2022-12-16T03:15:13;57.37;;;51.53;;
16804;SDS011;8520;50.102;20.010;2022-12-16T03:17:45;59.33;;;53.17;;
16804;SDS011;8520;50.102;20.010;2022-12-16T03:20:17;57.13;;;51.30;;
16804;SDS011;8520;50.102;20.010;2022-12-16T03:22:49;56.63;;;51.07;;
16804;SDS011;8520;50.102;20.010;2022-12-16T03:25:20;55.67;;;50.17;;
16804;SDS011;8520;50.102;20.010;2022-12-16T03:27:52;56.43;;;50.90;;
16804;SDS011;8520;50.102;20.010;2022-12-16T03:30:25;54.97;;;49.70;;
16804;SDS011;8520;50.102;20.010;2022-12-16T03:32:58;55.07;;;49.67;;
16804;SDS011;8520;50.102;20.010;2022-12-16T03:35:30;54.53;;;49.20;;
16804;SDS011;8520;50.102;20.010;2022-12-16T03:38:05;52.37;;;47.33;;
16804;SDS011;8520;50.102;20.010;2022-12-16T03:40:37;54.10;;;48.80;;
16804;SDS011;8520;50.102;20.010;2022-12-16T03:43:07;53.63;;;48.53;;
16804;SDS011;8520;50.102;20.010;2022-12-16T03:45:38;54.83;;;49.63;;
16804;SDS011;8520;50.102;20.010;2022-12-16T03:48:11;52.63;;;47.53;;
16804;SDS011;8520;50.102;20.010;2022-12-16T03:50:42;51.20;;;46.40;;
16804;SDS011;8520;50.102;20.010;2022-12-16T03:53:10;48.83;;;44.23;;
16804;SDS011;8520;50.102;20.010;2022-12-16T03:55:38;49.10;;;44.60;;
16804;SDS011;8520;50.102;20.010;2022-12-16T03:58:06;50.83;;;45.97;;
16804;SDS011;8520;50.102;20.010;2022-12-16T04:00:34;48.90;;;44.33;;
16804;SDS011;8520;50.102;20.010;2022-12-16T04:03:02;51.07;;;46.27;;
16804;SDS011;8520;50.102;20.010;2022-12-16T04:05:32;49.73;;;45.17;;
16804;SDS011;8520;50.102;20.010;2022-12-16T04:08:00;49.60;;;45.17;;
16804;SDS011;8520;50.102;20.010;2022-12-16T04:10:28;50.13;;;45.43;;
16804;SDS011;8520;50.102;20.010;2022-12-16T04:13:20;47.37;;;43.17;;
16804;SDS011;8520;50.102;20.010;2022-12-16T04:16:20;49.33;;;44.87;;
16804;SDS011;8520;50.102;20.010;2022-12-16T04:19:08;48.63;;;44.37;;
16804;SDS011;8520;50.102;20.010;2022-12-16T04:22:02;51.37;;;46.77;;
16804;SDS011;8520;50.102;20.010;2022-12-16T04:24:53;48.20;;;44.03;;
16804;SDS011;8520;50.102;20.010;2022-12-16T04:27:21;48.00;;;43.90;;
16804;SDS011;8520;50.102;20.010;2022-12-16T04:29:53;48.40;;;44.27;;
16804;SDS011;8520;50.102;20.010;2022-12-16T04:32:39;47.97;;;43.77;;
16804;SDS011;8520;50.102;20.010;2022-12-16T04:35:25;47.60;;;43.40;;
16804;SDS011;8520;50.102;20.010;2022-12-16T04:38:12;46.53;;;42.63;;
16804;SDS011;8520;50.102;20.010;2022-12-16T04:40:58;44.60;;;40.93;;
16804;SDS011;8520;50.102;20.010;2022-12-16T04:43:43;46.60;;;42.60;;
16804;SDS011;8520;50.102;20.010;2022-12-16T04:46:29;47.57;;;43.37;;
16804;SDS011;8520;50.102;20.010;2022-12-16T04:49:15;45.93;;;41.93;;
16804;SDS011;8520;50.102;20.010;2022-12-16T04:52:00;46.67;;;42.70;;
16804;SDS011;8520;50.102;20.010;2022-12-16T04:54:47;44.70;;;41.00;;
16804;SDS011;8520;50.102;20.010;2022-12-16T04:57:33;47.00;;;42.80;;
16804;SDS011;8520;50.102;20.010;2022-12-16T05:00:19;44.97;;;41.17;;
16804;SDS011;8520;50.102;20.010;2022-12-16T05:03:04;43.53;;;39.90;;
16804;SDS011;8520;50.102;20.010;2022-12-16T05:05:50;47.10;;;43.20;;
16804;SDS011;8520;50.102;20.010;2022-12-16T05:08:36;45.40;;;41.50;;
16804;SDS011;8520;50.102;20.010;2022-12-16T05:11:23;46.73;;;42.83;;
16804;SDS011;8520;50.102;20.010;2022-12-16T05:14:09;46.93;;;42.93;;
16804;SDS011;8520;50.102;20.010;2022-12-16T05:16:54;46.17;;;42.37;;
16804;SDS011;8520;50.102;20.010;2022-12-16T05:19:40;47.70;;;43.70;;
16804;SDS011;8520;50.102;20.010;2022-12-16T05:22:25;46.10;;;42.33;;
16804;SDS011;8520;50.102;20.010;2022-12-16T05:25:11;46.37;;;42.57;;
16804;SDS011;8520;50.102;20.010;2022-12-16T05:27:58;48.93;;;44.53;;
16804;SDS011;8520;50.102;20.010;2022-12-16T05:30:43;47.03;;;43.13;;
16804;SDS011;8520;50.102;20.010;2022-12-16T05:33:28;47.70;;;43.90;;
16804;SDS011;8520;50.102;20.010;2022-12-16T05:36:14;49.00;;;44.73;;
16804;SDS011;8520;50.102;20.010;2022-12-16T05:39:00;49.20;;;45.00;;
16804;SDS011;8520;50.102;20.010;2022-12-16T05:41:45;46.23;;;42.53;;
16804;SDS011;8520;50.102;20.010;2022-12-16T05:44:32;46.77;;;42.93;;
16804;SDS011;8520;50.102;20.010;2022-12-16T05:47:18;46.77;;;42.97;;
16804;SDS011;8520;50.102;20.010;2022-12-16T05:50:04;46.63;;;42.73;;
16804;SDS011;8520;50.102;20.010;2022-12-16T05:52:57;45.80;;;42.10;;
16804;SDS011;8520;50.102;20.010;2022-12-16T05:55:42;47.10;;;43.30;;
16804;SDS011;8520;50.102;20.010;2022-12-16T05:58:28;46.63;;;42.97;;
16804;SDS011;8520;50.102;20.010;2022-12-16T06:01:17;47.73;;;43.87;;
16804;SDS011;8520;50.102;20.010;2022-12-16T06:04:03;45.87;;;42.37;;
16804;SDS011;8520;50.102;20.010;2022-12-16T06:06:49;47.10;;;43.20;;
16804;SDS011;8520;50.102;20.010;2022-12-16T06:09:34;44.83;;;41.23;;
16804;SDS011;8520;50.102;20.010;2022-12-16T06:12:22;45.27;;;41.63;;
16804;SDS011;8520;50.102;20.010;2022-12-16T06:15:08;45.37;;;41.73;;
16804;SDS011;8520;50.102;20.010;2022-12-16T06:17:55;44.43;;;41.03;;
16804;SDS011;8520;50.102;20.010;2022-12-16T06:20:40;43.57;;;40.03;;
16804;SDS011;8520;50.102;20.010;2022-12-16T06:23:34;44.63;;;41.13;;
16804;SDS011;8520;50.102;20.010;2022-12-16T06:26:20;43.70;;;40.27;;
16804;SDS011;8520;50.102;20.010;2022-12-16T06:29:06;43.50;;;40.13;;
16804;SDS011;8520;50.102;20.010;2022-12-16T06:31:52;42.03;;;38.93;;
16804;SDS011;8520;50.102;20.010;2022-12-16T06:34:39;42.37;;;39.17;;
16804;SDS011;8520;50.102;20.010;2022-12-16T06:37:25;42.17;;;38.97;;
16804;SDS011;8520;50.102;20.010;2022-12-16T06:40:10;42.40;;;39.17;;
16804;SDS011;8520;50.102;20.010;2022-12-16T06:42:56;40.87;;;37.80;;
16804;SDS011;8520;50.102;20.010;2022-12-16T06:45:41;40.97;;;37.87;;
16804;SDS011;8520;50.102;20.010;2022-12-16T06:48:27;41.20;;;38.17;;
16804;SDS011;8520;50.102;20.010;2022-12-16T06:51:13;41.50;;;38.30;;
16804;SDS011;8520;50.102;20.010;2022-12-16T06:53:58;41.90;;;38.60;;
16804;SDS011;8520;50.102;20.010;2022-12-16T06:56:44;41.87;;;38.73;;
16804;SDS011;8520;50.102;20.010;2022-12-16T06:59:29;40.17;;;37.17;;
16804;SDS011;8520;50.102;20.010;2022-12-16T07:02:16;39.73;;;36.83;;
16804;SDS011;8520;50.102;20.010;2022-12-16T07:05:02;41.20;;;37.87;;
16804;SDS011;8520;50.102;20.010;2022-12-16T07:07:49;40.33;;;37.40;;
16804;SDS011;8520;50.102;20.010;2022-12-16T07:10:36;40.50;;;37.60;;
16804;SDS011;8520;50.102;20.010;2022-12-16T07:13:39;38.30;;;35.50;;
16804;SDS011;8520;50.102;20.010;2022-12-16T07:16:20;40.30;;;37.33;;
16804;SDS011;8520;50.102;20.010;2022-12-16T07:19:06;38.47;;;35.57;;
16804;SDS011;8520;50.102;20.010;2022-12-16T07:21:52;38.87;;;36.17;;
16804;SDS011;8520;50.102;20.010;2022-12-16T07:24:37;38.13;;;35.17;;
16804;SDS011;8520;50.102;20.010;2022-12-16T07:27:23;37.40;;;34.73;;
16804;SDS011;8520;50.102;20.010;2022-12-16T07:30:08;36.10;;;33.57;;
16804;SDS011;8520;50.102;20.010;2022-12-16T07:32:54;35.53;;;33.13;;
16804;SDS011;8520;50.102;20.010;2022-12-16T07:35:41;35.17;;;32.67;;
16804;SDS011;8520;50.102;20.010;2022-12-16T07:38:27;34.03;;;31.73;;
16804;SDS011;8520;50.102;20.010;2022-12-16T07:41:13;34.93;;;32.43;;
16804;SDS011;8520;50.102;20.010;2022-12-16T07:44:02;33.90;;;31.60;;
16804;SDS011;8520;50.102;20.010;2022-12-16T07:46:48;33.73;;;31.43;;
16804;SDS011;8520;50.102;20.010;2022-12-16T07:49:38;34.60;;;32.10;;
16804;SDS011;8520;50.102;20.010;2022-12-16T07:52:24;34.77;;;32.30;;
16804;SDS011;8520;50.102;20.010;2022-12-16T07:55:09;34.23;;;31.83;;
16804;SDS011;8520;50.102;20.010;2022-12-16T07:57:56;36.43;;;33.67;;
16804;SDS011;8520;50.102;20.010;2022-12-16T08:00:41;33.97;;;31.53;;
16804;SDS011;8520;50.102;20.010;2022-12-16T08:03:34;34.03;;;31.63;;
16804;SDS011;8520;50.102;20.010;2022-12-16T08:06:21;35.13;;;32.63;;
16804;SDS011;8520;50.102;20.010;2022-12-16T08:09:07;34.00;;;31.60;;
16804;SDS011;8520;50.102;20.010;2022-12-16T08:11:52;34.40;;;31.70;;
16804;SDS011;8520;50.102;20.010;2022-12-16T08:14:39;32.70;;;30.30;;
16804;SDS011;8520;50.102;20.010;2022-12-16T08:17:24;35.00;;;32.47;;
16804;SDS011;8520;50.102;20.010;2022-12-16T08:20:09;33.50;;;31.10;;
16804;SDS011;8520;50.102;20.010;2022-12-16T08:22:55;32.97;;;30.67;;
16804;SDS011;8520;50.102;20.010;2022-12-16T08:25:40;33.93;;;31.53;;
16804;SDS011;8520;50.102;20.010;2022-12-16T08:28:26;32.70;;;30.47;;
16804;SDS011;8520;50.102;20.010;2022-12-16T08:31:13;33.20;;;30.87;;
16804;SDS011;8520;50.102;20.010;2022-12-16T08:33:58;34.47;;;31.83;;
16804;SDS011;8520;50.102;20.010;2022-12-16T08:36:44;34.47;;;31.97;;
16804;SDS011;8520;50.102;20.010;2022-12-16T08:39:29;33.90;;;31.43;;
16804;SDS011;8520;50.102;20.010;2022-12-16T08:42:34;34.53;;;32.00;;
16804;SDS011;8520;50.102;20.010;2022-12-16T08:45:26;33.20;;;30.90;;
16804;SDS011;8520;50.102;20.010;2022-12-16T08:48:13;32.63;;;30.13;;
16804;SDS011;8520;50.102;20.010;2022-12-16T08:50:59;33.07;;;30.67;;
16804;SDS011;8520;50.102;20.010;2022-12-16T08:53:46;32.30;;;30.00;;
16804;SDS011;8520;50.102;20.010;2022-12-16T08:56:31;31.33;;;29.23;;
16804;SDS011;8520;50.102;20.010;2022-12-16T08:59:17;32.20;;;29.80;;
16804;SDS011;8520;50.102;20.010;2022-12-16T09:02:02;31.43;;;29.13;;
16804;SDS011;8520;50.102;20.010;2022-12-16T09:04:50;30.17;;;28.07;;
16804;SDS011;8520;50.102;20.010;2022-12-16T09:07:37;31.67;;;29.37;;
16804;SDS011;8520;50.102;20.010;2022-12-16T09:10:22;31.00;;;28.70;;
16804;SDS011;8520;50.102;20.010;2022-12-16T09:13:08;31.80;;;29.40;;
16804;SDS011;8520;50.102;20.010;2022-12-16T09:15:56;33.40;;;31.00;;
16804;SDS011;8520;50.102;20.010;2022-12-16T09:18:45;32.23;;;29.83;;
16804;SDS011;8520;50.102;20.010;2022-12-16T09:21:32;32.50;;;30.20;;
16804;SDS011;8520;50.102;20.010;2022-12-16T09:24:20;32.50;;;30.10;;
16804;SDS011;8520;50.102;20.010;2022-12-16T09:27:05;33.53;;;31.03;;
16804;SDS011;8520;50.102;20.010;2022-12-16T09:29:50;34.57;;;31.83;;
16804;SDS011;8520;50.102;20.010;2022-12-16T09:32:40;35.87;;;33.10;;
16804;SDS011;8520;50.102;20.010;2022-12-16T09:35:26;35.97;;;33.17;;
16804;SDS011;8520;50.102;20.010;2022-12-16T09:38:13;36.87;;;34.17;;
16804;SDS011;8520;50.102;20.010;2022-12-16T09:40:59;36.03;;;33.30;;
16804;SDS011;8520;50.102;20.010;2022-12-16T09:44:11;35.47;;;32.83;;
16804;SDS011;8520;50.102;20.010;2022-12-16T09:47:09;36.10;;;33.47;;
16804;SDS011;8520;50.102;20.010;2022-12-16T09:50:02;37.33;;;34.33;;
16804;SDS011;8520;50.102;20.010;2022-12-16T09:52:49;36.77;;;33.87;;
16804;SDS011;8520;50.102;20.010;2022-12-16T09:55:42;36.17;;;33.33;;
16804;SDS011;8520;50.102;20.010;2022-12-16T09:58:31;36.50;;;33.70;;
16804;SDS011;8520;50.102;20.010;2022-12-16T10:01:21;35.53;;;32.60;;
16804;SDS011;8520;50.102;20.010;2022-12-16T10:04:09;34.77;;;32.17;;
16804;SDS011;8520;50.102;20.010;2022-12-16T10:06:57;35.90;;;33.20;;
16804;SDS011;8520;50.102;20.010;2022-12-16T10:09:46;35.93;;;33.20;;
16804;SDS011;8520;50.102;20.010;2022-12-16T10:12:43;36.53;;;33.53;;
16804;SDS011;8520;50.102;20.010;2022-12-16T10:15:37;36.97;;;34.17;;
16804;SDS011;8520;50.102;20.010;2022-12-16T10:18:33;38.27;;;35.27;;
16804;SDS011;8520;50.102;20.010;2022-12-16T10:21:41;37.98;;;34.99;;
16804;SDS011;8520;50.102;20.010;2022-12-16T10:24:37;37.47;;;34.37;;
16804;SDS011;8520;50.102;20.010;2022-12-16T10:27:32;38.13;;;35.03;;
16804;SDS011;8520;50.102;20.010;2022-12-16T10:30:24;39.73;;;36.33;;
16804;SDS011;8520;50.102;20.010;2022-12-16T10:33:10;38.87;;;35.57;;
16804;SDS011;8520;50.102;20.010;2022-12-16T10:35:59;39.00;;;35.70;;
16804;SDS011;8520;50.102;20.010;2022-12-16T10:38:45;37.93;;;34.83;;
16804;SDS011;8520;50.102;20.010;2022-12-16T10:41:36;35.97;;;33.10;;
16804;SDS011;8520;50.102;20.010;2022-12-16T10:44:25;37.43;;;34.27;;
16804;SDS011;8520;50.102;20.010;2022-12-16T10:47:19;36.77;;;33.77;;
16804;SDS011;8520;50.102;20.010;2022-12-16T10:50:05;36.83;;;33.87;;
16804;SDS011;8520;50.102;20.010;2022-12-16T10:52:53;35.80;;;32.90;;
16804;SDS011;8520;50.102;20.010;2022-12-16T10:55:46;36.77;;;33.80;;
16804;SDS011;8520;50.102;20.010;2022-12-16T10:58:41;39.30;;;36.00;;
16804;SDS011;8520;50.102;20.010;2022-12-16T11:01:44;38.67;;;35.47;;
16804;SDS011;8520;50.102;20.010;2022-12-16T11:04:43;38.37;;;35.23;;
16804;SDS011;8520;50.102;20.010;2022-12-16T11:07:30;37.87;;;34.73;;
16804;SDS011;8520;50.102;20.010;2022-12-16T11:10:25;39.30;;;36.23;;
16804;SDS011;8520;50.102;20.010;2022-12-16T11:13:23;38.87;;;35.77;;
16804;SDS011;8520;50.102;20.010;2022-12-16T11:16:11;38.43;;;35.43;;
16804;SDS011;8520;50.102;20.010;2022-12-16T11:18:58;39.80;;;36.60;;
16804;SDS011;8520;50.102;20.010;2022-12-16T11:21:45;40.20;;;37.00;;
16804;SDS011;8520;50.102;20.010;2022-12-16T11:24:31;40.50;;;37.20;;
16804;SDS011;8520;50.102;20.010;2022-12-16T11:27:21;40.87;;;37.27;;
16804;SDS011;8520;50.102;20.010;2022-12-16T11:30:15;39.00;;;35.80;;
16804;SDS011;8520;50.102;20.010;2022-12-16T11:33:05;38.60;;;35.50;;
16804;SDS011;8520;50.102;20.010;2022-12-16T11:36:00;38.57;;;35.47;;
16804;SDS011;8520;50.102;20.010;2022-12-16T11:38:52;39.03;;;35.83;;
16804;SDS011;8520;50.102;20.010;2022-12-16T11:41:38;40.47;;;37.13;;
16804;SDS011;8520;50.102;20.010;2022-12-16T11:44:26;39.70;;;36.47;;
16804;SDS011;8520;50.102;20.010;2022-12-16T11:47:21;41.70;;;38.03;;
16804;SDS011;8520;50.102;20.010;2022-12-16T11:50:13;37.73;;;34.77;;
16804;SDS011;8520;50.102;20.010;2022-12-16T11:53:01;39.50;;;36.27;;
16804;SDS011;8520;50.102;20.010;2022-12-16T11:55:51;40.20;;;36.70;;
16804;SDS011;8520;50.102;20.010;2022-12-16T11:58:43;40.67;;;37.17;;
16804;SDS011;8520;50.102;20.010;2022-12-16T12:01:31;41.30;;;37.83;;
16804;SDS011;8520;50.102;20.010;2022-12-16T12:04:21;39.93;;;36.63;;
16804;SDS011;8520;50.102;20.010;2022-12-16T12:07:10;41.53;;;38.03;;
16804;SDS011;8520;50.102;20.010;2022-12-16T12:10:26;41.80;;;38.27;;
16804;SDS011;8520;50.102;20.010;2022-12-16T12:13:30;39.63;;;36.33;;
16804;SDS011;8520;50.102;20.010;2022-12-16T12:16:27;42.97;;;39.17;;
16804;SDS011;8520;50.102;20.010;2022-12-16T12:19:23;40.30;;;36.73;;
16804;SDS011;8520;50.102;20.010;2022-12-16T12:22:24;40.97;;;37.40;;
16804;SDS011;8520;50.102;20.010;2022-12-16T12:25:19;41.43;;;37.73;;
16804;SDS011;8520;50.102;20.010;2022-12-16T12:28:11;39.77;;;36.37;;
16804;SDS011;8520;50.102;20.010;2022-12-16T12:31:08;40.27;;;36.77;;
16804;SDS011;8520;50.102;20.010;2022-12-16T12:34:08;40.70;;;36.90;;
16804;SDS011;8520;50.102;20.010;2022-12-16T12:37:04;41.50;;;37.60;;
16804;SDS011;8520;50.102;20.010;2022-12-16T12:39:58;40.80;;;37.30;;
16804;SDS011;8520;50.102;20.010;2022-12-16T12:42:54;42.97;;;39.07;;
16804;SDS011;8520;50.102;20.010;2022-12-16T12:45:44;44.77;;;40.53;;
16804;SDS011;8520;50.102;20.010;2022-12-16T12:48:40;44.50;;;40.40;;
16804;SDS011;8520;50.102;20.010;2022-12-16T12:51:33;44.07;;;40.00;;
16804;SDS011;8520;50.102;20.010;2022-12-16T12:54:27;44.97;;;40.77;;
16804;SDS011;8520;50.102;20.010;2022-12-16T12:57:14;42.80;;;38.80;;
16804;SDS011;8520;50.102;20.010;2022-12-16T13:00:11;42.67;;;38.77;;
16804;SDS011;8520;50.102;20.010;2022-12-16T13:03:03;45.23;;;41.03;;
16804;SDS011;8520;50.102;20.010;2022-12-16T13:05:53;42.17;;;38.37;;
16804;SDS011;8520;50.102;20.010;2022-12-16T13:08:44;44.87;;;40.57;;
16804;SDS011;8520;50.102;20.010;2022-12-16T13:11:38;44.27;;;40.20;;
16804;SDS011;8520;50.102;20.010;2022-12-16T13:14:53;44.97;;;40.73;;
16804;SDS011;8520;50.102;20.010;2022-12-16T13:21:40;45.47;;;41.27;;
16804;SDS011;8520;50.102;20.010;2022-12-16T13:24:40;47.50;;;42.93;;
16804;SDS011;8520;50.102;20.010;2022-12-16T13:27:44;46.10;;;41.77;;
16804;SDS011;8520;50.102;20.010;2022-12-16T13:30:33;47.90;;;43.20;;
16804;SDS011;8520;50.102;20.010;2022-12-16T13:33:20;47.17;;;42.43;;
16804;SDS011;8520;50.102;20.010;2022-12-16T13:36:12;47.67;;;43.00;;
16804;SDS011;8520;50.102;20.010;2022-12-16T13:39:10;47.90;;;43.47;;
16804;SDS011;8520;50.102;20.010;2022-12-16T13:42:29;49.30;;;44.50;;
16804;SDS011;8520;50.102;20.010;2022-12-16T13:45:31;48.20;;;43.67;;
16804;SDS011;8520;50.102;20.010;2022-12-16T13:48:27;50.50;;;45.60;;
16804;SDS011;8520;50.102;20.010;2022-12-16T13:54:53;48.20;;;43.70;;
16804;SDS011;8520;50.102;20.010;2022-12-16T13:58:00;50.40;;;45.50;;
16804;SDS011;8520;50.102;20.010;2022-12-16T14:00:56;50.47;;;45.47;;
16804;SDS011;8520;50.102;20.010;2022-12-16T14:03:55;49.17;;;44.27;;
16804;SDS011;8520;50.102;20.010;2022-12-16T14:06:43;56.60;;;49.73;;
16804;SDS011;8520;50.102;20.010;2022-12-16T14:09:31;54.97;;;49.27;;
16804;SDS011;8520;50.102;20.010;2022-12-16T14:12:29;56.17;;;50.27;;
16804;SDS011;8520;50.102;20.010;2022-12-16T14:15:29;56.03;;;50.43;;
16804;SDS011;8520;50.102;20.010;2022-12-16T14:18:23;53.87;;;48.47;;
16804;SDS011;8520;50.102;20.010;2022-12-16T14:21:22;53.30;;;48.10;;
16804;SDS011;8520;50.102;20.010;2022-12-16T14:24:16;52.00;;;46.87;;
16804;SDS011;8520;50.102;20.010;2022-12-16T14:27:15;50.90;;;45.80;;
16804;SDS011;8520;50.102;20.010;2022-12-16T14:30:12;53.23;;;47.97;;
16804;SDS011;8520;50.102;20.010;2022-12-16T14:33:13;54.00;;;48.40;;
16804;SDS011;8520;50.102;20.010;2022-12-16T14:35:56;53.87;;;48.37;;
16804;SDS011;8520;50.102;20.010;2022-12-16T14:38:45;54.77;;;49.07;;
16804;SDS011;8520;50.102;20.010;2022-12-16T14:41:32;53.30;;;48.00;;
16804;SDS011;8520;50.102;20.010;2022-12-16T14:44:19;52.37;;;47.20;;
16804;SDS011;8520;50.102;20.010;2022-12-16T14:47:12;53.87;;;48.70;;
16804;SDS011;8520;50.102;20.010;2022-12-16T14:50:01;54.73;;;49.53;;
16804;SDS011;8520;50.102;20.010;2022-12-16T14:52:48;58.27;;;52.33;;
16804;SDS011;8520;50.102;20.010;2022-12-16T14:55:33;62.80;;;56.03;;
16804;SDS011;8520;50.102;20.010;2022-12-16T14:58:20;53.73;;;48.23;;
16804;SDS011;8520;50.102;20.010;2022-12-16T15:01:19;56.20;;;50.50;;
16804;SDS011;8520;50.102;20.010;2022-12-16T15:04:10;55.33;;;49.83;;
16804;SDS011;8520;50.102;20.010;2022-12-16T15:07:01;54.30;;;49.03;;
16804;SDS011;8520;50.102;20.010;2022-12-16T15:09:56;58.17;;;52.43;;
16804;SDS011;8520;50.102;20.010;2022-12-16T15:12:51;57.70;;;51.83;;
16804;SDS011;8520;50.102;20.010;2022-12-16T15:15:37;55.00;;;49.50;;
16804;SDS011;8520;50.102;20.010;2022-12-16T15:18:27;56.00;;;50.40;;
16804;SDS011;8520;50.102;20.010;2022-12-16T15:21:18;53.93;;;48.70;;
16804;SDS011;8520;50.102;20.010;2022-12-16T15:24:06;55.87;;;50.13;;
16804;SDS011;8520;50.102;20.010;2022-12-16T15:33:17;53.70;;;48.43;;
16804;SDS011;8520;50.102;20.010;2022-12-16T15:36:05;52.40;;;47.20;;
16804;SDS011;8520;50.102;20.010;2022-12-16T15:38:57;54.67;;;49.07;;
16804;SDS011;8520;50.102;20.010;2022-12-16T15:41:45;52.63;;;47.47;;
16804;SDS011;8520;50.102;20.010;2022-12-16T15:44:31;52.83;;;47.63;;
16804;SDS011;8520;50.102;20.010;2022-12-16T15:47:18;54.77;;;49.40;;
16804;SDS011;8520;50.102;20.010;2022-12-16T15:50:10;54.73;;;49.30;;
16804;SDS011;8520;50.102;20.010;2022-12-16T15:53:12;57.07;;;51.33;;
16804;SDS011;8520;50.102;20.010;2022-12-16T15:56:00;57.13;;;51.47;;
16804;SDS011;8520;50.102;20.010;2022-12-16T15:59:11;59.43;;;53.47;;
16804;SDS011;8520;50.102;20.010;2022-12-16T16:02:03;60.17;;;53.97;;
16804;SDS011;8520;50.102;20.010;2022-12-16T16:04:52;59.30;;;53.43;;
16804;SDS011;8520;50.102;20.010;2022-12-16T16:07:37;62.73;;;56.30;;
16804;SDS011;8520;50.102;20.010;2022-12-16T16:10:29;64.53;;;58.00;;
16804;SDS011;8520;50.102;20.010;2022-12-16T16:13:15;66.40;;;59.50;;
16804;SDS011;8520;50.102;20.010;2022-12-16T16:16:02;67.63;;;60.67;;
16804;SDS011;8520;50.102;20.010;2022-12-16T16:18:47;63.73;;;57.10;;
16804;SDS011;8520;50.102;20.010;2022-12-16T16:21:33;67.23;;;60.13;;
16804;SDS011;8520;50.102;20.010;2022-12-16T16:24:19;66.63;;;59.77;;